Time;durP1;ratioP1;P1;durP2;ratioP2;P2;SDS_P1;SDS_P2;PMS_P1;PMS_P2;Temp;Humidity;BMP_temperature;BMP_pressure;BME280_temperature;BME280_humidity;BME280_pressure;Samples;Min_cycle;Max_cycle;Signal;HPM_P1;HPM_P2
2022/01/08 00:01:55;;;;;;;5.88;3.78;;;23.10;35.60;;;;;;5004485;28;20111;-46
2022/01/08 00:04:21;;;;;;;5.72;4.00;;;23.10;35.70;;;;;;5003320;28;20053;-45
2022/01/08 00:06:47;;;;;;;5.32;3.92;;;23.10;35.60;;;;;;5022510;28;20029;-46
2022/01/08 00:09:13;;;;;;;5.93;4.22;;;23.00;35.50;;;;;;5012921;28;20042;-46
2022/01/08 00:11:42;;;;;;;5.90;3.90;;;23.00;35.50;;;;;;5003975;28;20639;-46
2022/01/08 00:14:10;;;;;;;5.60;3.60;;;23.00;35.50;;;;;;5001699;28;20096;-46
2022/01/08 00:16:38;;;;;;;5.38;4.00;;;23.00;35.50;;;;;;5002700;28;20528;-46
2022/01/08 00:19:05;;;;;;;6.22;3.83;;;23.00;35.50;;;;;;5001329;28;20449;-46
2022/01/08 00:21:30;;;;;;;6.28;4.22;;;23.00;35.50;;;;;;5003501;28;20748;-46
2022/01/08 00:23:56;;;;;;;6.18;4.13;;;23.00;35.50;;;;;;5003273;28;20038;-46
2022/01/08 00:26:22;;;;;;;5.65;3.85;;;23.00;35.50;;;;;;5004041;28;20120;-46
2022/01/08 00:28:48;;;;;;;6.13;4.05;;;23.00;35.50;;;;;;5002752;28;20124;-46
2022/01/08 00:31:14;;;;;;;5.93;3.80;;;23.00;35.50;;;;;;5004424;28;20575;-46
2022/01/08 00:33:40;;;;;;;5.13;3.38;;;23.00;35.40;;;;;;5003714;28;20033;-46
2022/01/08 00:36:07;;;;;;;5.88;3.80;;;22.90;35.50;;;;;;5004531;28;20041;-47
2022/01/08 00:38:33;;;;;;;5.55;3.83;;;22.90;35.40;;;;;;5022625;28;20566;-49
2022/01/08 00:40:59;;;;;;;5.78;3.95;;;22.90;35.40;;;;;;5023699;28;20025;-45
2022/01/08 00:43:25;;;;;;;6.03;3.80;;;22.90;35.40;;;;;;5002775;28;20037;-46
2022/01/08 00:45:51;;;;;;;5.93;4.30;;;22.90;35.50;;;;;;5003476;28;20372;-47
2022/01/08 00:48:17;;;;;;;5.65;3.65;;;22.90;35.40;;;;;;5003234;28;20097;-46
2022/01/08 00:50:43;;;;;;;5.35;3.72;;;22.90;35.40;;;;;;5026058;28;20406;-46
2022/01/08 00:53:09;;;;;;;4.95;3.53;;;22.90;35.40;;;;;;5041884;28;20025;-46
2022/01/08 00:55:35;;;;;;;5.80;3.85;;;22.80;35.30;;;;;;5023045;28;20032;-47
2022/01/08 00:58:00;;;;;;;5.35;3.38;;;22.80;35.30;;;;;;5022375;28;20029;-46
2022/01/08 01:00:26;;;;;;;5.18;3.70;;;22.80;35.30;;;;;;5004966;28;20677;-46
2022/01/08 01:02:53;;;;;;;5.50;3.75;;;22.80;35.30;;;;;;5003447;28;20581;-47
2022/01/08 01:05:20;;;;;;;5.78;4.15;;;22.80;35.30;;;;;;5004672;28;20093;-46
2022/01/08 01:07:47;;;;;;;5.53;4.13;;;22.80;35.30;;;;;;5004313;28;20557;-46
2022/01/08 01:10:13;;;;;;;5.68;3.85;;;22.80;35.30;;;;;;5021171;28;20042;-46
2022/01/08 01:12:39;;;;;;;6.40;4.28;;;22.80;35.40;;;;;;5024299;28;20628;-46
2022/01/08 01:15:07;;;;;;;6.68;4.30;;;22.80;35.50;;;;;;5023956;28;20033;-46
2022/01/08 01:17:33;;;;;;;5.97;4.15;;;22.80;35.50;;;;;;5027386;28;20037;-46
2022/01/08 01:19:59;;;;;;;5.50;3.58;;;22.80;35.50;;;;;;5027192;28;20075;-47
2022/01/08 01:22:29;;;;;;;5.50;3.80;;;22.70;35.40;;;;;;5026184;28;20022;-46
2022/01/08 01:25:02;;;;;;;4.70;3.33;;;22.70;35.30;;;;;;5012559;28;20513;-46
2022/01/08 01:27:53;;;;;;;5.32;3.67;;;22.70;35.30;;;;;;5007080;28;20105;-47
2022/01/08 01:30:17;;;;;;;5.13;3.38;;;22.70;35.30;;;;;;5020925;28;20091;-45
2022/01/08 01:48:50;;;;;;;4.90;3.40;;;22.60;35.80;;;;;;5026401;28;20022;-45
2022/01/08 01:51:23;;;;;;;4.85;3.28;;;22.60;35.20;;;;;;5041984;28;20425;-49
2022/01/08 01:53:50;;;;;;;4.85;3.42;;;22.60;35.20;;;;;;5039755;28;20096;-46
2022/01/08 01:56:18;;;;;;;4.75;3.47;;;22.60;35.20;;;;;;5014967;28;20525;-45
2022/01/08 01:58:44;;;;;;;5.28;3.60;;;22.60;35.20;;;;;;5006453;28;20105;-48
2022/01/08 02:01:10;;;;;;;4.95;3.17;;;22.60;35.20;;;;;;5005082;28;20692;-47
2022/01/08 02:03:36;;;;;;;4.97;3.60;;;22.60;35.20;;;;;;5005646;28;20105;-49
2022/01/08 02:06:02;;;;;;;4.53;3.10;;;22.60;35.20;;;;;;5007137;28;20109;-47
2022/01/08 02:08:29;;;;;;;5.20;3.53;;;22.60;35.20;;;;;;5008237;28;20049;-47
2022/01/08 02:10:55;;;;;;;4.90;3.20;;;22.60;35.20;;;;;;5025240;28;20029;-47
2022/01/08 02:13:25;;;;;;;4.93;3.00;;;22.60;35.20;;;;;;5024615;28;20036;-50
2022/01/08 02:15:53;;;;;;;4.80;3.22;;;22.60;35.20;;;;;;5026288;28;20033;-47
2022/01/08 02:18:25;;;;;;;4.95;3.17;;;22.60;35.10;;;;;;5025318;28;20056;-50
2022/01/08 02:20:52;;;;;;;4.90;3.38;;;22.50;35.20;;;;;;5025854;28;20052;-48
2022/01/08 02:23:18;;;;;;;4.15;2.65;;;22.50;35.20;;;;;;5025577;28;20026;-49
2022/01/08 02:25:44;;;;;;;5.20;3.13;;;22.50;35.20;;;;;;5005928;28;20064;-49
2022/01/08 02:28:10;;;;;;;4.57;2.80;;;22.50;35.20;;;;;;5005706;28;20030;-49
2022/01/08 02:30:36;;;;;;;4.50;3.10;;;22.50;35.20;;;;;;5005571;28;20562;-48
2022/01/08 02:33:02;;;;;;;5.45;4.10;;;22.50;35.30;;;;;;5005771;28;20367;-49
2022/01/08 02:35:28;;;;;;;5.07;3.65;;;22.50;35.40;;;;;;5006327;28;20130;-49
2022/01/08 02:37:54;;;;;;;5.03;3.63;;;22.50;35.40;;;;;;5005314;28;20133;-49
2022/01/08 02:40:22;;;;;;;5.15;3.33;;;22.40;35.30;;;;;;5005447;28;20030;-49
2022/01/08 02:42:59;;;;;;;5.18;3.38;;;22.40;35.40;;;;;;5004367;28;20042;-48
2022/01/08 02:45:25;;;;;;;5.40;3.60;;;22.40;35.40;;;;;;5006078;28;20041;-48
2022/01/08 02:47:52;;;;;;;4.75;3.45;;;22.40;35.40;;;;;;5005393;28;20030;-48
2022/01/08 02:50:18;;;;;;;4.95;3.72;;;22.40;35.40;;;;;;5021951;28;20032;-48
2022/01/08 02:52:45;;;;;;;4.68;3.42;;;22.40;35.30;;;;;;5016427;28;20026;-48
2022/01/08 02:55:16;;;;;;;4.63;3.15;;;22.40;35.30;;;;;;5006442;28;20124;-49
2022/01/08 02:57:41;;;;;;;4.90;3.30;;;22.40;35.30;;;;;;5005422;28;20411;-50
2022/01/08 03:00:09;;;;;;;4.65;3.22;;;22.40;35.40;;;;;;5004507;28;20026;-48
2022/01/08 03:02:42;;;;;;;5.07;3.65;;;22.40;35.20;;;;;;5005114;28;20038;-48
2022/01/08 03:05:10;;;;;;;4.13;2.83;;;22.40;35.10;;;;;;5005917;28;20029;-47
2022/01/08 03:07:37;;;;;;;4.53;3.33;;;22.40;35.10;;;;;;5005982;28;20029;-48
2022/01/08 03:10:03;;;;;;;4.35;2.72;;;22.40;35.10;;;;;;5018559;28;20733;-49
2022/01/08 03:12:30;;;;;;;4.63;2.58;;;22.30;35.20;;;;;;5025021;28;20041;-48
2022/01/08 03:14:56;;;;;;;4.25;2.97;;;22.30;35.10;;;;;;5025390;28;20029;-48
2022/01/08 03:17:22;;;;;;;3.72;2.78;;;22.30;35.10;;;;;;5019564;28;20050;-48
2022/01/08 03:19:51;;;;;;;4.45;3.10;;;22.30;35.10;;;;;;5005453;28;20069;-47
2022/01/08 03:22:17;;;;;;;4.35;3.05;;;22.30;35.10;;;;;;5005348;28;20021;-49
2022/01/08 03:24:43;;;;;;;4.35;2.60;;;22.30;35.10;;;;;;5014571;28;20478;-50
2022/01/08 03:27:08;;;;;;;4.35;3.10;;;22.30;35.10;;;;;;5024492;28;20048;-48
2022/01/08 03:29:34;;;;;;;4.25;2.95;;;22.30;35.10;;;;;;5013977;28;20057;-48
2022/01/08 03:32:00;;;;;;;4.43;2.92;;;22.30;35.70;;;;;;5005360;28;20136;-48
2022/01/08 03:34:27;;;;;;;4.35;2.90;;;22.30;35.10;;;;;;5005336;28;20049;-48
2022/01/08 03:36:52;;;;;;;3.83;2.53;;;22.20;35.00;;;;;;5004994;28;20034;-48
2022/01/08 03:39:19;;;;;;;3.75;2.45;;;22.30;35.10;;;;;;5009726;28;20083;-47
2022/01/08 03:41:45;;;;;;;4.40;2.95;;;22.20;35.00;;;;;;5018747;28;20026;-49
2022/01/08 03:44:11;;;;;;;4.00;2.65;;;22.20;35.00;;;;;;5004503;28;20020;-49
2022/01/08 03:46:37;;;;;;;4.00;2.80;;;22.20;35.00;;;;;;5004599;28;20025;-48
2022/01/08 03:51:31;;;;;;;4.60;2.90;;;22.20;35.00;;;;;;5041357;28;20401;-47
2022/01/08 03:53:57;;;;;;;4.28;2.80;;;22.20;35.30;;;;;;5036495;28;20042;-47
2022/01/08 03:56:24;;;;;;;4.28;2.88;;;22.10;35.00;;;;;;5004212;28;20061;-49
2022/01/08 03:58:50;;;;;;;3.80;2.67;;;22.20;35.00;;;;;;5004114;28;20030;-47
2022/01/08 04:01:16;;;;;;;4.25;2.75;;;22.10;35.00;;;;;;5004858;28;20239;-48
2022/01/08 04:03:42;;;;;;;4.15;2.90;;;22.10;35.70;;;;;;5004019;28;20022;-47
2022/01/08 04:06:08;;;;;;;4.93;3.20;;;22.20;35.00;;;;;;5004277;28;20569;-47
2022/01/08 04:08:34;;;;;;;4.18;2.67;;;22.20;35.00;;;;;;5004495;28;20034;-48
2022/01/08 04:11:01;;;;;;;3.65;2.20;;;22.10;35.10;;;;;;5013728;28;20391;-48
2022/01/08 04:13:30;;;;;;;4.38;2.65;;;22.10;35.10;;;;;;5018295;28;20030;-47
2022/01/08 04:16:02;;;;;;;4.03;2.80;;;22.10;35.00;;;;;;5024273;28;20083;-48
2022/01/08 04:18:27;;;;;;;4.35;2.72;;;22.10;35.00;;;;;;5023704;28;20065;-48
2022/01/08 04:23:35;;;;;;;3.67;2.42;;;22.10;35.10;;;;;;5023168;28;20029;-48
2022/01/08 04:26:01;;;;;;;4.72;2.80;;;22.10;35.10;;;;;;5022310;28;20501;-47
2022/01/08 04:28:26;;;;;;;4.30;2.80;;;22.10;35.10;;;;;;5023982;28;20036;-49
2022/01/08 04:30:52;;;;;;;3.75;2.47;;;22.10;35.10;;;;;;5024778;28;20101;-48
2022/01/08 04:33:18;;;;;;;4.40;2.65;;;22.00;35.00;;;;;;5023563;28;20037;-49
2022/01/08 04:35:44;;;;;;;4.15;2.85;;;22.10;35.20;;;;;;5024234;28;20033;-48
2022/01/08 04:38:11;;;;;;;4.30;2.85;;;22.00;35.20;;;;;;5023833;28;20037;-49
2022/01/08 04:40:37;;;;;;;4.63;3.08;;;22.00;35.20;;;;;;5008360;28;20040;-48
2022/01/08 04:43:03;;;;;;;4.32;2.50;;;22.00;35.20;;;;;;5003601;28;20255;-48
2022/01/08 04:45:29;;;;;;;4.43;2.60;;;22.00;35.20;;;;;;5004156;28;20030;-48
2022/01/08 04:47:57;;;;;;;4.13;2.88;;;22.00;35.20;;;;;;5016284;28;20013;-48
2022/01/08 04:50:23;;;;;;;4.43;2.83;;;22.00;35.00;;;;;;5028423;28;20445;-47
2022/01/08 04:52:49;;;;;;;3.65;2.35;;;22.00;35.00;;;;;;5025990;28;20026;-49
2022/01/08 04:55:15;;;;;;;4.18;2.80;;;22.00;35.10;;;;;;5027914;28;20666;-49
2022/01/08 04:57:41;;;;;;;4.75;2.95;;;22.00;35.00;;;;;;5028380;28;20109;-48
2022/01/08 05:00:07;;;;;;;4.20;2.83;;;22.00;35.00;;;;;;5027886;28;20104;-47
2022/01/08 05:02:33;;;;;;;4.43;2.60;;;22.00;35.10;;;;;;5027874;28;20065;-48
2022/01/08 05:04:59;;;;;;;3.92;2.67;;;22.00;35.00;;;;;;5027414;28;20068;-48
2022/01/08 05:07:25;;;;;;;4.35;2.83;;;22.00;35.10;;;;;;5027355;28;20636;-48
2022/01/08 05:09:50;;;;;;;3.97;2.60;;;21.90;35.00;;;;;;5018602;28;20032;-48
2022/01/08 05:12:16;;;;;;;4.05;2.80;;;21.90;35.10;;;;;;5007822;28;20057;-49
2022/01/08 05:14:44;;;;;;;4.43;2.78;;;21.90;35.10;;;;;;5008303;28;20096;-48
2022/01/08 05:17:10;;;;;;;4.88;2.80;;;21.90;35.00;;;;;;5007480;28;20037;-48
2022/01/08 05:22:10;;;;;;;4.95;3.00;;;21.90;35.10;;;;;;5013422;28;20627;-49
2022/01/08 05:24:36;;;;;;;4.05;2.50;;;21.90;35.00;;;;;;5020863;28;20063;-47
2022/01/08 05:27:03;;;;;;;3.78;2.35;;;21.90;35.10;;;;;;5014517;28;20026;-48
2022/01/08 05:29:30;;;;;;;4.07;2.92;;;21.90;35.10;;;;;;5027388;28;20108;-48
2022/01/08 05:31:56;;;;;;;3.90;2.47;;;21.90;35.10;;;;;;5011236;28;20044;-46
2022/01/08 05:34:22;;;;;;;4.30;2.58;;;21.80;35.00;;;;;;5007632;28;20114;-47
2022/01/08 05:36:48;;;;;;;4.47;2.72;;;21.90;35.10;;;;;;5006547;28;20105;-47
2022/01/08 05:39:13;;;;;;;4.10;2.60;;;21.80;35.00;;;;;;5006646;28;20022;-48
2022/01/08 05:41:39;;;;;;;4.65;3.05;;;21.80;35.60;;;;;;5006193;28;20084;-49
2022/01/08 05:44:05;;;;;;;4.60;2.70;;;21.80;35.00;;;;;;5006724;28;20104;-49
2022/01/08 05:46:31;;;;;;;4.70;2.90;;;21.80;35.00;;;;;;4990114;28;20529;-47
2022/01/08 05:49:01;;;;;;;4.60;2.95;;;21.80;35.00;;;;;;5006803;28;20026;-48
2022/01/08 05:51:27;;;;;;;3.85;2.60;;;21.80;35.00;;;;;;5040215;28;20029;-48
2022/01/08 05:53:52;;;;;;;4.53;2.75;;;21.80;35.00;;;;;;5046068;28;20041;-49
2022/01/08 05:56:18;;;;;;;4.03;2.60;;;21.80;35.00;;;;;;5027970;28;20783;-48
2022/01/08 05:58:44;;;;;;;4.20;2.70;;;21.80;35.00;;;;;;5026883;28;20041;-47
2022/01/08 06:01:10;;;;;;;4.15;2.90;;;21.80;35.00;;;;;;5025311;28;20438;-46
2022/01/08 06:03:35;;;;;;;4.40;2.75;;;21.80;35.00;;;;;;5024594;28;20120;-48
2022/01/08 06:06:01;;;;;;;4.40;2.70;;;21.80;35.00;;;;;;5026282;28;20224;-49
2022/01/08 06:08:27;;;;;;;4.30;2.88;;;21.80;35.00;;;;;;5025400;28;20029;-48
2022/01/08 06:10:52;;;;;;;3.97;2.38;;;21.80;35.00;;;;;;5025951;28;20091;-47
2022/01/08 06:13:18;;;;;;;4.03;2.65;;;21.80;35.10;;;;;;5008852;28;20052;-48
2022/01/08 06:15:44;;;;;;;4.38;2.80;;;21.80;35.10;;;;;;5006338;28;20030;-48
2022/01/08 06:18:10;;;;;;;4.13;2.88;;;21.80;35.20;;;;;;5004934;28;20025;-48
2022/01/08 06:20:35;;;;;;;4.15;2.67;;;21.80;35.20;;;;;;5006757;28;20091;-47
2022/01/08 06:23:01;;;;;;;4.13;2.85;;;21.80;35.90;;;;;;5006063;28;20176;-47
2022/01/08 06:25:27;;;;;;;4.50;2.60;;;21.80;35.30;;;;;;5018612;28;20030;-47
2022/01/08 06:27:54;;;;;;;5.85;3.38;;;21.80;35.30;;;;;;5026287;28;20072;-47
2022/01/08 06:30:20;;;;;;;4.63;2.58;;;21.80;35.40;;;;;;5023911;28;20029;-47
2022/01/08 06:32:45;;;;;;;4.20;2.80;;;21.80;35.40;;;;;;5025615;28;20036;-47
2022/01/08 06:35:11;;;;;;;4.38;2.67;;;21.80;35.40;;;;;;5026199;28;20033;-48
2022/01/08 06:37:37;;;;;;;4.35;2.50;;;21.90;35.50;;;;;;5025249;28;20594;-47
2022/01/08 06:40:03;;;;;;;4.18;2.45;;;21.90;35.50;;;;;;5024517;28;20052;-49
2022/01/08 06:42:29;;;;;;;3.72;2.38;;;22.00;35.40;;;;;;5013534;28;20030;-49
2022/01/08 06:44:54;;;;;;;4.30;2.70;;;22.00;35.30;;;;;;5004569;28;20032;-47
2022/01/08 06:47:20;;;;;;;3.90;2.50;;;22.10;35.40;;;;;;5005406;28;20123;-49
2022/01/08 06:49:46;;;;;;;3.72;2.15;;;22.20;35.30;;;;;;5015725;28;20021;-47
2022/01/08 06:52:11;;;;;;;4.63;3.05;;;22.20;35.20;;;;;;5023829;28;20045;-51
2022/01/08 06:54:37;;;;;;;4.22;2.70;;;22.30;35.20;;;;;;5023304;28;20079;-47
2022/01/08 06:57:03;;;;;;;4.80;2.60;;;22.30;35.40;;;;;;5024032;28;20029;-46
2022/01/08 06:59:29;;;;;;;3.53;2.33;;;22.40;35.30;;;;;;5024286;28;20033;-48
2022/01/08 07:01:55;;;;;;;3.85;2.15;;;22.50;35.30;;;;;;5024171;28;20398;-47
2022/01/08 07:04:20;;;;;;;4.03;2.60;;;22.50;35.20;;;;;;5022695;28;20017;-47
2022/01/08 07:06:46;;;;;;;4.65;2.55;;;22.60;35.20;;;;;;5023582;28;20037;-47
2022/01/08 07:09:12;;;;;;;3.60;2.20;;;22.70;35.10;;;;;;5022726;28;20139;-47
2022/01/08 07:11:38;;;;;;;4.15;2.83;;;22.80;34.90;;;;;;5022445;28;20429;-47
2022/01/08 07:14:03;;;;;;;5.15;2.58;;;22.80;34.80;;;;;;5022238;28;20059;-46
2022/01/08 07:16:29;;;;;;;4.80;2.58;;;22.90;34.70;;;;;;5023174;28;20087;-47
2022/01/08 07:18:55;;;;;;;4.38;2.67;;;23.00;34.60;;;;;;5021997;28;20068;-46
2022/01/08 07:21:20;;;;;;;6.00;2.70;;;23.00;34.50;;;;;;5023767;28;20072;-47
2022/01/08 07:23:46;;;;;;;4.43;2.95;;;23.10;34.50;;;;;;5022522;28;20383;-48
2022/01/08 07:26:12;;;;;;;4.65;3.10;;;23.20;34.30;;;;;;5014850;28;20030;-48
2022/01/08 07:28:39;;;;;;;5.20;3.10;;;23.20;34.10;;;;;;5014021;28;20356;-47
2022/01/08 07:31:05;;;;;;;4.40;2.90;;;23.30;34.50;;;;;;5013588;28;20544;-48
2022/01/08 07:33:31;;;;;;;4.50;3.05;;;23.30;34.40;;;;;;5013667;28;20021;-48
2022/01/08 07:35:57;;;;;;;4.95;2.55;;;23.40;34.30;;;;;;5014690;28;20554;-46
2022/01/08 07:38:22;;;;;;;4.95;3.08;;;23.50;34.30;;;;;;5013088;28;20030;-47
2022/01/08 07:40:51;;;;;;;4.38;2.83;;;23.50;34.40;;;;;;5009543;28;20022;-47
2022/01/08 07:43:18;;;;;;;3.85;2.35;;;23.60;34.30;;;;;;5011950;28;20050;-48
2022/01/08 07:45:44;;;;;;;3.97;2.50;;;23.70;34.40;;;;;;5011997;28;20068;-48
2022/01/08 07:48:09;;;;;;;5.35;2.95;;;23.70;34.40;;;;;;5018202;28;20049;-47
2022/01/08 07:50:35;;;;;;;4.60;2.97;;;23.80;34.30;;;;;;5023267;28;20080;-46
2022/01/08 07:53:01;;;;;;;4.15;2.55;;;23.80;34.30;;;;;;5022677;28;20029;-47
2022/01/08 07:55:27;;;;;;;4.78;2.53;;;23.90;34.30;;;;;;5023721;28;20039;-49
2022/01/08 07:57:52;;;;;;;3.95;2.60;;;23.90;34.90;;;;;;5022500;28;20080;-48
2022/01/08 08:00:18;;;;;;;3.58;2.33;;;23.90;34.30;;;;;;5004935;28;20029;-48
2022/01/08 08:02:44;;;;;;;4.32;2.80;;;24.00;34.30;;;;;;5002182;28;20037;-48
2022/01/08 08:05:10;;;;;;;3.67;2.10;;;24.00;34.20;;;;;;5015118;28;20401;-49
2022/01/08 08:07:37;;;;;;;4.53;2.83;;;24.00;34.20;;;;;;5023009;28;20020;-48
2022/01/08 08:10:14;;;;;;;3.63;2.30;;;24.10;34.30;;;;;;5021059;28;20120;-48
2022/01/08 08:12:40;;;;;;;4.53;2.78;;;24.10;34.50;;;;;;5014939;28;20030;-47
2022/01/08 08:15:08;;;;;;;5.60;2.60;;;24.10;34.50;;;;;;5023510;28;20440;-49
2022/01/08 08:17:35;;;;;;;4.15;2.50;;;24.20;34.50;;;;;;5004543;28;20044;-49
2022/01/08 08:20:02;;;;;;;4.78;2.40;;;24.20;34.70;;;;;;5005680;28;20403;-48
2022/01/08 08:22:28;;;;;;;3.92;2.55;;;24.20;34.50;;;;;;5020597;28;20029;-47
2022/01/08 08:24:53;;;;;;;4.38;3.03;;;24.20;34.60;;;;;;5023621;28;20022;-46
2022/01/08 08:27:19;;;;;;;4.57;2.90;;;24.30;34.60;;;;;;5029862;28;20026;-46
2022/01/08 08:29:45;;;;;;;4.15;2.63;;;24.30;34.50;;;;;;5010139;28;20145;-46
2022/01/08 08:32:11;;;;;;;6.03;3.80;;;24.30;34.50;;;;;;5008581;28;20629;-45
2022/01/08 08:34:36;;;;;;;6.07;4.10;;;24.30;34.30;;;;;;5009668;28;20063;-45
2022/01/08 08:37:02;;;;;;;5.25;3.60;;;24.30;34.20;;;;;;5009647;28;20186;-46
2022/01/08 08:39:28;;;;;;;7.45;4.15;;;24.40;34.10;;;;;;5011500;28;20033;-45
2022/01/08 08:41:55;;;;;;;8.15;4.47;;;24.40;34.00;;;;;;5024371;28;20037;-46
2022/01/08 08:44:21;;;;;;;5.50;3.60;;;24.50;34.00;;;;;;5010097;28;20030;-46
2022/01/08 08:46:46;;;;;;;5.60;3.92;;;24.50;34.00;;;;;;5009917;28;20163;-45
2022/01/08 08:49:12;;;;;;;7.05;4.40;;;24.60;34.00;;;;;;5017662;28;20744;-45
2022/01/08 08:51:38;;;;;;;6.07;3.85;;;24.60;33.90;;;;;;5032788;28;20040;-46
2022/01/08 08:54:04;;;;;;;4.82;3.60;;;24.60;34.00;;;;;;5009700;28;20528;-46
2022/01/08 08:56:30;;;;;;;6.30;4.03;;;24.70;34.10;;;;;;5009431;28;20096;-46
2022/01/08 08:58:56;;;;;;;6.45;4.32;;;24.70;33.90;;;;;;5009695;28;20112;-46
2022/01/08 09:01:23;;;;;;;6.15;4.50;;;24.70;33.80;;;;;;5010184;28;20034;-47
2022/01/08 09:03:49;;;;;;;6.72;4.28;;;24.80;33.80;;;;;;5009054;28;20026;-47
2022/01/08 09:06:14;;;;;;;8.07;4.95;;;24.80;33.70;;;;;;5007902;28;20056;-47
2022/01/08 09:08:40;;;;;;;7.45;3.85;;;24.80;33.60;;;;;;5010794;28;20086;-47
2022/01/08 09:11:06;;;;;;;7.47;4.65;;;24.80;33.60;;;;;;5020399;28;20024;-46
2022/01/08 09:13:33;;;;;;;6.20;4.18;;;24.90;33.60;;;;;;5009395;28;20042;-46
2022/01/08 09:15:58;;;;;;;6.40;4.32;;;24.90;33.60;;;;;;5008750;28;20026;-46
2022/01/08 09:18:24;;;;;;;7.32;4.50;;;24.90;33.50;;;;;;5022620;28;20034;-46
2022/01/08 09:20:50;;;;;;;6.28;3.85;;;24.90;33.50;;;;;;5028698;28;20095;-47
2022/01/08 09:23:16;;;;;;;6.20;3.92;;;25.00;33.40;;;;;;5025751;28;20100;-46
2022/01/08 09:25:41;;;;;;;6.03;4.28;;;25.00;33.30;;;;;;5027858;28;20034;-47
2022/01/08 09:28:07;;;;;;;6.18;4.10;;;25.00;33.30;;;;;;5028330;28;20022;-46
2022/01/08 09:30:33;;;;;;;5.97;4.15;;;25.00;33.30;;;;;;5028482;28;20072;-47
2022/01/08 09:32:59;;;;;;;6.13;4.10;;;25.00;33.30;;;;;;5027879;28;20029;-47
2022/01/08 09:35:26;;;;;;;6.45;4.30;;;25.00;33.20;;;;;;5027203;28;20042;-47
2022/01/08 09:37:53;;;;;;;6.95;4.03;;;25.00;33.20;;;;;;5023680;28;20033;-46
2022/01/08 09:40:21;;;;;;;6.53;4.05;;;25.00;33.30;;;;;;5024386;28;20418;-46
2022/01/08 09:42:49;;;;;;;7.40;4.30;;;25.10;33.30;;;;;;5024742;28;20056;-47
2022/01/08 09:45:15;;;;;;;10.02;5.07;;;25.10;33.50;;;;;;5020312;28;20018;-46
2022/01/08 09:47:41;;;;;;;8.23;4.72;;;25.10;33.60;;;;;;5025542;28;20152;-46
2022/01/08 09:50:08;;;;;;;6.10;4.18;;;25.10;33.60;;;;;;5031992;28;20117;-46
2022/01/08 09:52:34;;;;;;;6.53;4.28;;;25.10;33.70;;;;;;5045494;28;20086;-45
2022/01/08 09:55:00;;;;;;;6.95;3.95;;;25.10;33.80;;;;;;5014864;28;20029;-47
2022/01/08 09:57:26;;;;;;;7.97;4.97;;;25.10;33.90;;;;;;5024158;28;20087;-47
2022/01/08 09:59:52;;;;;;;7.38;4.15;;;25.10;33.90;;;;;;5024475;28;20037;-46
2022/01/08 10:02:22;;;;;;;7.47;4.80;;;25.20;33.80;;;;;;5004556;28;20047;-47
2022/01/08 10:04:48;;;;;;;5.28;3.75;;;25.20;33.80;;;;;;5006756;28;20030;-49
2022/01/08 10:07:25;;;;;;;6.00;3.55;;;25.20;33.70;;;;;;5021957;28;20521;-47
2022/01/08 10:09:59;;;;;;;5.88;4.18;;;25.20;34.30;;;;;;5021875;28;20026;-47
2022/01/08 10:12:51;;;;;;;7.05;4.20;;;25.20;33.70;;;;;;5006181;28;20041;-46
2022/01/08 10:18:19;;;;;;;7.45;4.40;;;25.20;33.50;;;;;;5005953;28;20438;-46
2022/01/08 10:20:49;;;;;;;5.35;3.33;;;25.20;33.50;;;;;;5013791;28;20098;-46
2022/01/08 10:23:22;;;;;;;6.50;3.50;;;25.20;33.50;;;;;;5025051;28;20031;-46
2022/01/08 10:25:55;;;;;;;;;;;25.30;33.50;;;;;;5025670;28;20091;-46
2022/01/08 10:28:47;;;;;;;6.20;3.65;;;25.30;33.50;;;;;;5024446;28;19912;-46
2022/01/08 10:31:13;;;;;;;4.43;2.57;;;25.20;33.50;;;;;;5026347;28;20029;-46
2022/01/08 10:33:40;;;;;;;5.30;3.30;;;25.30;33.50;;;;;;5024656;28;20091;-46
2022/01/08 10:36:07;;;;;;;4.68;2.90;;;25.30;33.30;;;;;;5025502;28;20032;-46
2022/01/08 10:38:33;;;;;;;4.35;2.97;;;25.20;33.30;;;;;;5025748;28;20517;-46
2022/01/08 10:41:00;;;;;;;4.85;2.83;;;25.20;33.40;;;;;;5013315;28;20018;-46
2022/01/08 10:43:32;;;;;;;4.53;3.00;;;25.30;33.30;;;;;;5005828;28;20025;-46
2022/01/08 10:46:10;;;;;;;6.20;3.58;;;25.30;33.20;;;;;;5004932;28;20049;-47
2022/01/08 10:48:37;;;;;;;4.82;2.92;;;25.30;33.30;;;;;;5004861;28;20037;-46
2022/01/08 10:51:24;;;;;;;6.05;3.25;;;25.30;33.30;;;;;;5004840;28;20065;-47
2022/01/08 10:54:01;;;;;;;5.13;3.50;;;25.30;33.10;;;;;;5004828;28;20026;-46
2022/01/08 10:56:30;;;;;;;5.63;3.47;;;25.30;33.20;;;;;;5006323;28;20080;-46
2022/01/08 10:59:07;;;;;;;7.05;3.40;;;25.30;33.10;;;;;;5024457;28;20087;-46
2022/01/08 11:01:43;;;;;;;5.15;3.50;;;25.30;33.10;;;;;;5025020;28;20032;-45
2022/01/08 11:04:31;;;;;;;4.47;2.72;;;25.30;33.30;;;;;;5024597;28;20021;-47
2022/01/08 11:07:02;;;;;;;4.95;3.13;;;25.30;33.30;;;;;;5012732;28;20132;-45
2022/01/08 11:09:28;;;;;;;5.20;3.63;;;25.30;33.20;;;;;;5025102;28;20034;-47
2022/01/08 11:11:57;;;;;;;5.53;2.97;;;25.30;33.20;;;;;;5018735;28;20112;-46
2022/01/08 11:14:48;;;;;;;4.18;2.63;;;25.30;33.20;;;;;;5023995;28;20236;-45
2022/01/08 11:17:19;;;;;;;4.53;3.17;;;25.30;33.30;;;;;;5023531;28;20070;-46
2022/01/08 11:19:55;;;;;;;5.20;3.08;;;25.30;33.20;;;;;;5024081;28;20434;-47
2022/01/08 11:22:24;;;;;;;5.25;3.50;;;25.30;33.10;;;;;;5024223;28;20050;-46
2022/01/08 11:24:52;;;;;;;5.38;3.17;;;25.30;33.10;;;;;;5023089;28;20033;-47
2022/01/08 11:27:22;;;;;;;5.38;3.47;;;25.30;33.10;;;;;;5024216;28;20026;-46
2022/01/08 11:30:19;;;;;;;4.80;2.92;;;25.30;33.00;;;;;;5013360;28;20033;-46
2022/01/08 11:32:45;;;;;;;5.70;2.97;;;25.30;33.00;;;;;;5011220;28;20072;-46
2022/01/08 11:35:13;;;;;;;4.43;2.95;;;25.30;33.80;;;;;;5025313;28;20026;-47
2022/01/08 11:37:45;;;;;;;6.47;3.22;;;25.30;33.20;;;;;;5024426;28;20681;-46
2022/01/08 11:40:11;;;;;;;5.05;3.13;;;25.30;33.10;;;;;;5019117;28;20616;-45
2022/01/08 11:42:39;;;;;;;6.30;3.90;;;25.30;33.10;;;;;;5007321;28;20423;-46
2022/01/08 11:45:08;;;;;;;5.85;3.20;;;25.30;32.60;;;;;;5003318;28;20073;-46
2022/01/08 11:47:34;;;;;;;4.68;3.40;;;25.30;32.80;;;;;;5009354;28;20038;-46
2022/01/08 11:50:03;;;;;;;5.07;3.30;;;25.30;33.10;;;;;;5028095;28;20076;-46
2022/01/08 11:52:29;;;;;;;4.00;2.47;;;25.30;33.10;;;;;;5042543;28;20504;-46
2022/01/08 11:54:55;;;;;;;4.45;3.03;;;25.30;33.20;;;;;;5039703;28;20037;-46
2022/01/08 11:57:25;;;;;;;4.63;2.75;;;25.30;33.20;;;;;;5022646;28;20034;-46
2022/01/08 11:59:57;;;;;;;4.53;3.03;;;25.30;33.30;;;;;;5021141;28;20029;-47
2022/01/08 12:02:39;;;;;;;4.75;3.03;;;25.40;33.20;;;;;;5023455;28;20033;-46
2022/01/08 12:05:06;;;;;;;5.15;3.30;;;25.30;33.20;;;;;;5022577;28;20025;-46
2022/01/08 12:07:36;;;;;;;4.85;3.17;;;25.30;33.30;;;;;;5004688;28;20112;-47
2022/01/08 12:10:29;;;;;;;4.38;2.72;;;25.30;33.30;;;;;;5003322;28;20119;-46
2022/01/08 12:12:59;;;;;;;4.97;3.17;;;25.20;33.50;;;;;;5003204;28;20029;-47
2022/01/08 12:15:40;;;;;;;5.45;3.15;;;25.30;33.50;;;;;;5022343;28;20060;-47
2022/01/08 12:18:07;;;;;;;5.05;3.05;;;25.30;33.50;;;;;;5020514;28;20038;-47
2022/01/08 12:20:49;;;;;;;5.28;3.85;;;25.30;33.50;;;;;;5022534;28;20057;-46
2022/01/08 12:23:30;;;;;;;7.43;3.00;;;25.30;33.50;;;;;;5020407;28;20028;-47
2022/01/08 12:26:06;;;;;;;5.72;3.20;;;25.20;33.40;;;;;;5013018;28;20099;-47
2022/01/08 12:28:47;;;;;;;4.50;3.13;;;25.20;33.40;;;;;;5001843;28;20779;-46
2022/01/08 12:31:25;;;;;;;6.75;3.38;;;25.20;33.30;;;;;;5004188;28;20030;-46
2022/01/08 12:34:19;;;;;;;4.53;3.17;;;25.20;33.30;;;;;;5021218;28;20056;-46
2022/01/08 12:36:52;;;;;;;4.93;3.22;;;25.20;33.30;;;;;;5011794;28;20030;-47
2022/01/08 12:39:22;;;;;;;6.00;3.22;;;25.20;33.10;;;;;;5003492;28;20025;-47
2022/01/08 12:41:47;;;;;;;5.60;3.30;;;25.20;33.10;;;;;;5002709;28;20080;-46
2022/01/08 12:44:27;;;;;;;4.70;3.25;;;25.10;33.10;;;;;;5003216;28;20661;-49
2022/01/08 12:46:53;;;;;;;4.80;3.13;;;25.20;33.20;;;;;;5007190;28;20029;-46
2022/01/08 12:49:18;;;;;;;4.53;2.78;;;25.20;33.20;;;;;;5022065;28;20032;-47
2022/01/08 12:51:51;;;;;;;4.63;2.85;;;25.20;33.20;;;;;;5016109;28;20116;-46
2022/01/08 12:54:18;;;;;;;5.03;3.10;;;25.20;33.20;;;;;;5002539;28;20034;-46
2022/01/08 12:56:49;;;;;;;4.80;3.15;;;25.20;33.20;;;;;;5017727;28;20034;-49
2022/01/08 12:59:15;;;;;;;4.97;3.55;;;25.20;33.10;;;;;;5009369;28;20121;-46
2022/01/08 13:01:45;;;;;;;3.78;2.50;;;25.20;33.10;;;;;;5003332;28;20124;-47
2022/01/08 13:04:16;;;;;;;4.15;2.60;;;25.20;33.10;;;;;;5003047;28;20038;-46
2022/01/08 13:06:42;;;;;;;4.07;2.70;;;25.20;33.10;;;;;;5015130;28;20146;-47
2022/01/08 13:09:08;;;;;;;3.83;2.33;;;25.20;33.10;;;;;;5022947;28;20037;-46
2022/01/08 13:11:36;;;;;;;4.97;3.22;;;25.20;33.10;;;;;;5010375;28;20129;-46
2022/01/08 13:14:08;;;;;;;5.47;3.55;;;25.20;33.00;;;;;;5006481;28;20036;-46
2022/01/08 13:16:45;;;;;;;4.87;3.43;;;25.20;33.00;;;;;;5020471;28;20061;-45
2022/01/08 13:19:15;;;;;;;4.85;2.90;;;25.20;33.00;;;;;;5026367;28;20307;-46